Time;durP1;ratioP1;P1;durP2;ratioP2;P2;SDS_P1;SDS_P2;PMS_P1;PMS_P2;Temp;Humidity;BMP_temperature;BMP_pressure;BME280_temperature;BME280_humidity;BME280_pressure;Samples;Min_cycle;Max_cycle;Signal;HPM_P1;HPM_P2
2023/12/29 00:01:32;;;;;;;42.50;17.50;;;;;;;-128.00;-1.00;-1.00;100424;1282;1004440;-30
2023/12/29 00:03:57;;;;;;;38.90;17.80;;;;;;;-128.00;-1.00;-1.00;100408;1280;1003140;-32
2023/12/29 00:06:23;;;;;;;47.70;19.30;;;;;;;-128.00;-1.00;-1.00;100500;1280;1003095;-30
2023/12/29 00:08:49;;;;;;;40.70;17.70;;;;;;;-128.00;-1.00;-1.00;100415;1280;1003864;-31
2023/12/29 00:11:20;;;;;;;45.40;17.30;;;;;;;-128.00;-1.00;-1.00;100483;1280;1060320;-34
2023/12/29 00:13:46;;;;;;;43.90;18.30;;;;;;;-128.00;-1.00;-1.00;100500;1280;1055225;-31
2023/12/29 00:16:12;;;;;;;;;;;;;;;-128.00;-1.00;-1.00;100485;1282;1002864;-30
2023/12/29 00:18:38;;;;;;;40.10;16.80;;;;;;;-128.00;-1.00;-1.00;100567;1280;1003328;-32
2023/12/29 00:21:04;;;;;;;41.20;17.20;;;;;;;-128.00;-1.00;-1.00;100424;1280;1046949;-30
2023/12/29 00:23:30;;;;;;;38.80;17.10;;;;;;;-128.00;-1.00;-1.00;100388;1280;1003120;-30
2023/12/29 00:25:56;;;;;;;38.50;17.10;;;;;;;-128.00;-1.00;-1.00;100436;1280;1003323;-30
2023/12/29 00:28:21;;;;;;;35.90;16.50;;;;;;;-128.00;-1.00;-1.00;100374;1282;1013283;-31
2023/12/29 00:30:47;;;;;;;42.50;17.20;;;;;;;-128.00;-1.00;-1.00;100422;1282;1003283;-29
2023/12/29 00:33:13;;;;;;;39.90;17.20;;;;;;;-128.00;-1.00;-1.00;100493;1280;1003176;-31
2023/12/29 00:35:39;;;;;;;37.10;16.30;;;;;;;-128.00;-1.00;-1.00;100392;1282;1056185;-30
2023/12/29 00:38:05;;;;;;;39.10;16.60;;;;;;;-128.00;-1.00;-1.00;100409;1280;1003070;-30
2023/12/29 00:40:32;;;;;;;38.70;16.70;;;;;;;-128.00;-1.00;-1.00;100516;1281;1003837;-31
2023/12/29 00:42:57;;;;;;;37.10;16.00;;;;;;;-128.00;-1.00;-1.00;100532;1280;1003049;-30
2023/12/29 00:45:23;;;;;;;40.60;15.70;;;;;;;-128.00;-1.00;-1.00;100410;1280;1002941;-30
2023/12/29 00:47:50;;;;;;;40.60;16.80;;;;;;;-128.00;-1.00;-1.00;100613;1280;1004412;-30
2023/12/29 00:50:16;;;;;;;36.70;17.00;;;;;;;-128.00;-1.00;-1.00;100371;1280;1058307;-32
2023/12/29 00:52:42;;;;;;;33.50;16.00;;;;;;;-128.00;-1.00;-1.00;100352;1280;1002952;-32
2023/12/29 00:55:08;;;;;;;40.90;16.20;;;;;;;-128.00;-1.00;-1.00;100390;1281;1004012;-30
2023/12/29 00:57:33;;;;;;;39.60;16.40;;;;;;;-128.00;-1.00;-1.00;100407;1281;1003739;-31
2023/12/29 00:59:59;;;;;;;36.60;15.80;;;;;;;-128.00;-1.00;-1.00;100449;1280;1003281;-31
2023/12/29 01:02:25;;;;;;;;;;;;;;;-128.00;-1.00;-1.00;100466;1280;1002882;-30
2023/12/29 01:04:50;;;;;;;37.10;15.60;;;;;;;-128.00;-1.00;-1.00;100409;1282;1002770;-29
2023/12/29 01:07:16;;;;;;;35.70;15.10;;;;;;;-128.00;-1.00;-1.00;100512;1280;1046678;-29
2023/12/29 01:09:42;;;;;;;34.40;14.80;;;;;;;-128.00;-1.00;-1.00;100505;1284;1002844;-32
2023/12/29 01:12:07;;;;;;;33.00;14.80;;;;;;;-128.00;-1.00;-1.00;100353;1283;1003404;-32
2023/12/29 01:14:33;;;;;;;36.30;15.00;;;;;;;-128.00;-1.00;-1.00;100340;1282;1003008;-30
2023/12/29 01:16:58;;;;;;;37.10;15.70;;;;;;;-128.00;-1.00;-1.00;100536;1282;1002522;-30
2023/12/29 01:19:24;;;;;;;33.10;14.90;;;;;;;-128.00;-1.00;-1.00;100456;1280;1003433;-32
2023/12/29 01:21:49;;;;;;;36.60;15.60;;;;;;;-128.00;-1.00;-1.00;100496;1280;1003374;-30
2023/12/29 01:24:15;;;;;;;33.50;14.60;;;;;;;-128.00;-1.00;-1.00;100389;1281;1003454;-31
2023/12/29 01:26:41;;;;;;;28.60;13.40;;;;;;;-128.00;-1.00;-1.00;100456;1280;1003466;-31
2023/12/29 01:29:06;;;;;;;33.10;14.20;;;;;;;-128.00;-1.00;-1.00;100430;1280;1002846;-31
2023/12/29 01:31:32;;;;;;;33.80;14.20;;;;;;;-128.00;-1.00;-1.00;100409;1282;1004216;-31
2023/12/29 01:33:58;;;;;;;31.10;13.90;;;;;;;-128.00;-1.00;-1.00;100524;1281;1003105;-30
2023/12/29 01:36:24;;;;;;;30.40;13.60;;;;;;;-128.00;-1.00;-1.00;100435;1280;1012017;-33
2023/12/29 01:38:49;;;;;;;32.90;14.10;;;;;;;-128.00;-1.00;-1.00;100451;1282;1003323;-30
2023/12/29 01:41:15;;;;;;;27.60;12.90;;;;;;;-128.00;-1.00;-1.00;100509;1280;1004142;-30
2023/12/29 01:44:04;;;;;;;29.70;13.00;;;;;;;-128.00;-1.00;-1.00;100386;1280;1055983;-31
2023/12/29 01:46:31;;;;;;;32.20;13.10;;;;;;;-128.00;-1.00;-1.00;100432;1282;1058471;-30
2023/12/29 01:48:57;;;;;;;27.70;11.70;;;;;;;-128.00;-1.00;-1.00;100437;1280;1002839;-30
2023/12/29 01:51:25;;;;;;;24.50;12.00;;;;;;;-128.00;-1.00;-1.00;100497;1280;1002765;-31
2023/12/29 02:35:13;;;;;;;24.60;11.60;;;;;;;-75.74;39.40;39645.88;101652;1282;1002337;-30
2023/12/29 02:37:39;;;;;;;22.80;11.20;;;;;;;-128.00;-1.00;-1.00;100404;1283;1003454;-31
2023/12/29 02:40:06;;;;;;;;;;;;;;;-128.00;-1.00;-1.00;100568;1282;1003490;-30
2023/12/29 02:42:31;;;;;;;19.70;9.10;;;;;;;-128.00;-1.00;-1.00;100491;1283;1002931;-32
2023/12/29 02:44:57;;;;;;;22.60;10.40;;;;;;;-128.00;-1.00;-1.00;100275;1282;1003573;-30
2023/12/29 02:47:22;;;;;;;22.40;10.40;;;;;;;-128.00;-1.00;-1.00;100382;1282;1002584;-30
2023/12/29 02:49:50;;;;;;;;;;;;;;;-128.00;-1.00;-1.00;100425;1282;1002867;-30
2023/12/29 02:52:15;;;;;;;;;;;;;;;-128.00;-1.00;-1.00;100642;1285;1002328;-31
2023/12/29 02:54:41;;;;;;;16.70;8.20;;;;;;;-128.00;-1.00;-1.00;100279;1280;1003748;-33
2023/12/29 02:57:06;;;;;;;20.70;10.10;;;;;;;-128.00;-1.00;-1.00;100491;1283;1003353;-32
2023/12/29 02:59:32;;;;;;;19.40;9.60;;;;;;;-128.00;-1.00;-1.00;100593;1282;1004379;-31
2023/12/29 03:01:57;;;;;;;25.00;9.70;;;;;;;-128.00;-1.00;-1.00;100431;1284;1003635;-32
2023/12/29 03:04:23;;;;;;;21.00;9.40;;;;;;;-128.00;-1.00;-1.00;100454;1282;1003570;-31
2023/12/29 03:06:48;;;;;;;22.00;9.20;;;;;;;-128.00;-1.00;-1.00;100455;1280;1003206;-31
2023/12/29 03:09:13;;;;;;;17.20;9.40;;;;;;;-128.00;-1.00;-1.00;100526;1280;1003606;-32
2023/12/29 03:11:39;;;;;;;20.90;9.60;;;;;;;-128.00;-1.00;-1.00;100530;1280;1003608;-32
2023/12/29 03:14:04;;;;;;;20.60;9.20;;;;;;;-128.00;-1.00;-1.00;100510;1282;1003097;-32
2023/12/29 03:16:30;;;;;;;21.30;9.70;;;;;;;-128.00;-1.00;-1.00;100418;1280;1055402;-31
2023/12/29 03:18:56;;;;;;;21.10;9.70;;;;;;;-128.00;-1.00;-1.00;100450;1281;1003624;-31
2023/12/29 03:21:21;;;;;;;18.90;9.10;;;;;;;-128.00;-1.00;-1.00;100457;1282;1039007;-32
2023/12/29 03:23:47;;;;;;;21.30;9.70;;;;;;;-128.00;-1.00;-1.00;100552;1280;1004790;-30
2023/12/29 03:26:12;;;;;;;18.50;8.60;;;;;;;-128.00;-1.00;-1.00;100445;1282;1005346;-30
2023/12/29 03:28:38;;;;;;;20.80;9.60;;;;;;;-128.00;-1.00;-1.00;100477;1282;1003193;-31
2023/12/29 03:31:05;;;;;;;17.20;9.00;;;;;;;-128.00;-1.00;-1.00;100393;1280;1003191;-32
2023/12/29 03:33:30;;;;;;;20.70;9.40;;;;;;;-128.00;-1.00;-1.00;100492;1285;1004831;-30
2023/12/29 03:35:56;;;;;;;15.70;9.20;;;;;;;-128.00;-1.00;-1.00;100686;1282;1002411;-31
2023/12/29 03:38:22;;;;;;;15.90;9.10;;;;;;;-128.00;-1.00;-1.00;100471;1282;1003037;-31
2023/12/29 03:40:47;;;;;;;19.50;8.90;;;;;;;-128.00;-1.00;-1.00;100386;1282;1004197;-31
2023/12/29 03:43:13;;;;;;;17.00;8.20;;;;;;;-128.00;-1.00;-1.00;100477;1285;1003224;-31
2023/12/29 03:45:38;;;;;;;20.00;8.90;;;;;;;-128.00;-1.00;-1.00;100504;1282;1002970;-35
2023/12/29 03:48:04;;;;;;;20.30;8.50;;;;;;;-128.00;-1.00;-1.00;100487;1283;1003144;-31
2023/12/29 03:50:30;;;;;;;;;;;;;;;-128.00;-1.00;-1.00;100662;1282;1004653;-30
2023/12/29 03:52:56;;;;;;;17.60;8.00;;;;;;;-128.00;-1.00;-1.00;100432;1282;1002526;-32
2023/12/29 03:55:21;;;;;;;18.90;8.30;;;;;;;-128.00;-1.00;-1.00;100395;1285;1039459;-30
2023/12/29 03:57:47;;;;;;;18.30;9.10;;;;;;;-128.00;-1.00;-1.00;100490;1283;1003712;-31
2023/12/29 04:00:13;;;;;;;22.40;9.70;;;;;;;-128.00;-1.00;-1.00;100447;1282;1002932;-31
2023/12/29 04:02:39;;;;;;;23.10;9.30;;;;;;;-128.00;-1.00;-1.00;100354;1283;1058160;-31
2023/12/29 04:05:06;;;;;;;18.40;8.80;;;;;;;-128.00;-1.00;-1.00;100367;1282;1002713;-31
2023/12/29 04:07:31;;;;;;;21.60;8.70;;;;;;;-128.00;-1.00;-1.00;100427;1284;1003359;-31
2023/12/29 04:09:57;;;;;;;15.40;8.20;;;;;;;-128.00;-1.00;-1.00;100510;1283;1003638;-31
2023/12/29 04:12:22;;;;;;;17.90;8.20;;;;;;;-128.00;-1.00;-1.00;100488;1281;1003992;-36
2023/12/29 04:14:48;;;;;;;17.50;7.90;;;;;;;-128.00;-1.00;-1.00;100181;1281;1003388;-31
2023/12/29 04:17:14;;;;;;;14.90;7.80;;;;;;;-128.00;-1.00;-1.00;100408;1282;1003564;-31
2023/12/29 04:19:41;;;;;;;16.20;8.60;;;;;;;-128.00;-1.00;-1.00;100436;1282;1047120;-30
2023/12/29 04:22:07;;;;;;;17.10;8.60;;;;;;;-128.00;-1.00;-1.00;100559;1284;1003281;-30
2023/12/29 04:24:33;;;;;;;15.80;8.30;;;;;;;-128.00;-1.00;-1.00;100522;1281;1002390;-29
2023/12/29 04:26:59;;;;;;;;;;;;;;;-128.00;-1.00;-1.00;100461;1284;1004664;-31
2023/12/29 04:29:24;;;;;;;15.50;7.80;;;;;;;-128.00;-1.00;-1.00;100481;1282;1003239;-29
2023/12/29 04:31:50;;;;;;;13.30;7.80;;;;;;;-128.00;-1.00;-1.00;100514;1283;1046917;-30
2023/12/29 04:34:16;;;;;;;14.20;8.00;;;;;;;-128.00;-1.00;-1.00;100408;1285;1003033;-32
2023/12/29 04:36:41;;;;;;;14.40;8.30;;;;;;;-128.00;-1.00;-1.00;100439;1281;1002901;-31
2023/12/29 04:39:09;;;;;;;17.60;7.80;;;;;;;-128.00;-1.00;-1.00;100446;1283;1013630;-33
2023/12/29 04:41:35;;;;;;;18.20;9.00;;;;;;;-128.00;-1.00;-1.00;100239;1286;1003163;-32
2023/12/29 04:44:00;;;;;;;17.70;9.00;;;;;;;-128.00;-1.00;-1.00;100554;1281;1004131;-31
2023/12/29 04:46:26;;;;;;;17.70;8.70;;;;;;;-128.00;-1.00;-1.00;100258;1282;1002913;-30
2023/12/29 04:48:51;;;;;;;16.80;9.20;;;;;;;-128.00;-1.00;-1.00;100397;1282;1003184;-30
2023/12/29 04:51:17;;;;;;;16.90;8.60;;;;;;;-128.00;-1.00;-1.00;100445;1284;1003749;-30
2023/12/29 04:53:43;;;;;;;19.60;7.80;;;;;;;-128.00;-1.00;-1.00;100413;1282;1002884;-30
2023/12/29 04:56:08;;;;;;;18.40;8.40;;;;;;;-128.00;-1.00;-1.00;100413;1282;1004518;-31
2023/12/29 04:58:34;;;;;;;16.60;8.80;;;;;;;-128.00;-1.00;-1.00;100602;1282;1004696;-31
2023/12/29 05:01:00;;;;;;;18.20;8.70;;;;;;;-128.00;-1.00;-1.00;100419;1282;1004263;-31
2023/12/29 05:03:25;;;;;;;17.90;7.70;;;;;;;-128.00;-1.00;-1.00;100389;1283;1003765;-34
2023/12/29 05:05:51;;;;;;;15.60;7.90;;;;;;;-128.00;-1.00;-1.00;100583;1282;1003370;-30
2023/12/29 05:08:17;;;;;;;14.10;7.60;;;;;;;-128.00;-1.00;-1.00;100536;1282;1003804;-35
2023/12/29 05:10:42;;;;;;;12.90;7.70;;;;;;;-128.00;-1.00;-1.00;100415;1282;1058611;-30
2023/12/29 05:13:08;;;;;;;19.90;8.30;;;;;;;-128.00;-1.00;-1.00;100629;1282;1003844;-30
2023/12/29 05:15:34;;;;;;;17.70;9.00;;;;;;;-128.00;-1.00;-1.00;100440;1281;1003288;-30
2023/12/29 05:17:59;;;;;;;14.60;8.20;;;;;;;-128.00;-1.00;-1.00;100718;1282;1003894;-30
2023/12/29 05:20:25;;;;;;;15.50;7.90;;;;;;;-128.00;-1.00;-1.00;100403;1283;1003632;-31
2023/12/29 05:22:50;;;;;;;13.00;7.70;;;;;;;-128.00;-1.00;-1.00;100522;1282;1002836;-30
2023/12/29 05:25:16;;;;;;;16.60;8.70;;;;;;;-128.00;-1.00;-1.00;100492;1281;1003554;-30
2023/12/29 05:27:41;;;;;;;14.00;7.90;;;;;;;-128.00;-1.00;-1.00;100424;1282;1059628;-30
2023/12/29 05:30:07;;;;;;;13.20;7.50;;;;;;;-128.00;-1.00;-1.00;100615;1282;1005108;-30
2023/12/29 05:32:33;;;;;;;12.00;7.60;;;;;;;-128.00;-1.00;-1.00;100555;1281;1004027;-33
2023/12/29 05:34:58;;;;;;;14.40;8.30;;;;;;;-128.00;-1.00;-1.00;100450;1283;1004613;-31
2023/12/29 05:37:24;;;;;;;13.60;7.80;;;;;;;-128.00;-1.00;-1.00;100418;1282;1003793;-31
2023/12/29 05:39:50;;;;;;;14.20;6.80;;;;;;;-128.00;-1.00;-1.00;100477;1282;1055405;-32
2023/12/29 05:42:15;;;;;;;12.70;7.70;;;;;;;-128.00;-1.00;-1.00;100527;1282;1002637;-32
2023/12/29 05:44:41;;;;;;;18.00;7.90;;;;;;;-128.00;-1.00;-1.00;100519;1283;1038699;-31
2023/12/29 05:47:06;;;;;;;13.60;7.40;;;;;;;-128.00;-1.00;-1.00;100478;1282;1003534;-32
2023/12/29 05:49:37;;;;;;;13.90;7.50;;;;;;;-128.00;-1.00;-1.00;100284;1283;1003816;-33
2023/12/29 05:52:04;;;;;;;11.60;7.50;;;;;;;-128.00;-1.00;-1.00;100445;1285;1059206;-29
2023/12/29 05:54:29;;;;;;;12.20;7.00;;;;;;;-128.00;-1.00;-1.00;100415;1283;1003857;-29
2023/12/29 05:56:55;;;;;;;14.50;7.80;;;;;;;-128.00;-1.00;-1.00;100576;1283;1004435;-30
2023/12/29 05:59:21;;;;;;;13.20;7.60;;;;;;;-128.00;-1.00;-1.00;100519;1283;1002978;-34
2023/12/29 06:01:46;;;;;;;13.10;7.30;;;;;;;-128.00;-1.00;-1.00;100540;1282;1002431;-30
2023/12/29 06:04:12;;;;;;;15.70;8.00;;;;;;;-128.00;-1.00;-1.00;100392;1283;1004291;-30
2023/12/29 06:06:37;;;;;;;11.30;7.50;;;;;;;-128.00;-1.00;-1.00;100452;1281;1003697;-29
2023/12/29 06:09:03;;;;;;;13.00;7.80;;;;;;;-128.00;-1.00;-1.00;100514;1282;1002982;-29
2023/12/29 06:11:29;;;;;;;12.10;7.70;;;;;;;-128.00;-1.00;-1.00;100425;1282;1002689;-31
2023/12/29 06:13:54;;;;;;;15.30;8.50;;;;;;;-128.00;-1.00;-1.00;100573;1282;1004898;-32
2023/12/29 06:16:20;;;;;;;19.40;8.60;;;;;;;-128.00;-1.00;-1.00;100411;1283;1038384;-30
2023/12/29 06:18:46;;;;;;;;;;;;;;;-128.00;-1.00;-1.00;100444;1281;1003160;-32
2023/12/29 06:21:12;;;;;;;13.90;7.90;;;;;;;-128.00;-1.00;-1.00;100450;1282;1003494;-30
2023/12/29 06:23:38;;;;;;;17.30;8.50;;;;;;;-128.00;-1.00;-1.00;100253;1281;1002922;-31
2023/12/29 06:26:03;;;;;;;17.70;9.60;;;;;;;-128.00;-1.00;-1.00;100528;1281;1012381;-31
2023/12/29 06:28:29;;;;;;;16.80;9.60;;;;;;;-128.00;-1.00;-1.00;100465;1282;1003038;-31
2023/12/29 06:30:55;;;;;;;17.40;9.80;;;;;;;-128.00;-1.00;-1.00;100593;1282;1003792;-32
2023/12/29 06:33:21;;;;;;;22.30;10.30;;;;;;;-128.00;-1.00;-1.00;100524;1282;1055470;-31
2023/12/29 06:35:48;;;;;;;20.30;10.60;;;;;;;-128.00;-1.00;-1.00;100433;1283;1003450;-33
2023/12/29 06:38:14;;;;;;;20.10;10.70;;;;;;;-128.00;-1.00;-1.00;100426;1281;1004026;-31
2023/12/29 06:40:40;;;;;;;18.40;9.30;;;;;;;-128.00;-1.00;-1.00;100289;1283;1003431;-32
2023/12/29 06:43:05;;;;;;;20.80;10.40;;;;;;;-128.00;-1.00;-1.00;100541;1280;1003191;-31
2023/12/29 06:45:31;;;;;;;18.40;10.20;;;;;;;-128.00;-1.00;-1.00;100512;1281;1055180;-31
2023/12/29 06:47:57;;;;;;;19.40;10.00;;;;;;;-128.00;-1.00;-1.00;100453;1283;1003961;-32
2023/12/29 06:50:22;;;;;;;17.70;9.90;;;;;;;-128.00;-1.00;-1.00;100486;1283;1004214;-32
2023/12/29 06:52:48;;;;;;;19.40;10.10;;;;;;;-128.00;-1.00;-1.00;100503;1282;1003779;-32
2023/12/29 06:55:13;;;;;;;20.20;10.90;;;;;;;-128.00;-1.00;-1.00;100525;1282;1003998;-31
2023/12/29 06:57:39;;;;;;;16.60;9.60;;;;;;;-128.00;-1.00;-1.00;100392;1282;1059524;-29
2023/12/29 07:00:05;;;;;;;20.60;10.80;;;;;;;-128.00;-1.00;-1.00;100448;1283;1002848;-29
2023/12/29 07:02:31;;;;;;;21.70;10.70;;;;;;;-128.00;-1.00;-1.00;100462;1281;1046941;-29
2023/12/29 07:04:57;;;;;;;19.00;10.00;;;;;;;-128.00;-1.00;-1.00;100282;1282;1002784;-30
2023/12/29 07:07:22;;;;;;;20.40;11.50;;;;;;;-128.00;-1.00;-1.00;100532;1281;1003410;-31
2023/12/29 07:09:48;;;;;;;18.80;10.50;;;;;;;-128.00;-1.00;-1.00;100556;1282;1003707;-30
2023/12/29 07:12:13;;;;;;;20.90;10.10;;;;;;;-128.00;-1.00;-1.00;100544;1281;1003045;-30
2023/12/29 07:14:41;;;;;;;18.70;10.60;;;;;;;-128.00;-1.00;-1.00;100613;1282;1003696;-32
2023/12/29 07:17:06;;;;;;;20.50;10.60;;;;;;;-128.00;-1.00;-1.00;100523;1282;1056153;-32
2023/12/29 07:19:36;;;;;;;17.80;9.90;;;;;;;-128.00;-1.00;-1.00;100462;1281;1005150;-30
2023/12/29 07:22:08;;;;;;;18.10;9.40;;;;;;;-128.00;-1.00;-1.00;100395;1284;1038873;-31
2023/12/29 07:24:35;;;;;;;19.20;9.20;;;;;;;-128.00;-1.00;-1.00;100440;1282;1046850;-32
2023/12/29 07:27:01;;;;;;;17.90;8.80;;;;;;;-128.00;-1.00;-1.00;100448;1282;1003487;-32
2023/12/29 07:29:27;;;;;;;16.20;9.00;;;;;;;-128.00;-1.00;-1.00;100586;1282;1004281;-32
2023/12/29 07:31:53;;;;;;;18.70;9.00;;;;;;;-128.00;-1.00;-1.00;100483;1283;1003446;-30
2023/12/29 07:34:19;;;;;;;15.80;9.00;;;;;;;-128.00;-1.00;-1.00;100580;1282;1003247;-32
2023/12/29 07:36:45;;;;;;;17.00;9.60;;;;;;;-128.00;-1.00;-1.00;100372;1281;1002913;-31
2023/12/29 07:39:10;;;;;;;20.00;9.90;;;;;;;-128.00;-1.00;-1.00;100469;1282;1003505;-31
2023/12/29 07:41:41;;;;;;;17.80;9.10;;;;;;;-128.00;-1.00;-1.00;100604;1282;1004362;-32
2023/12/29 07:44:06;;;;;;;17.60;9.00;;;;;;;-128.00;-1.00;-1.00;100478;1282;1059329;-31
2023/12/29 07:46:32;;;;;;;15.00;8.40;;;;;;;-128.00;-1.00;-1.00;100481;1281;1003817;-32
2023/12/29 07:48:57;;;;;;;14.90;9.20;;;;;;;-128.00;-1.00;-1.00;100461;1285;1004569;-32
2023/12/29 07:51:23;;;;;;;14.50;8.30;;;;;;;-128.00;-1.00;-1.00;100567;1282;1003901;-32
2023/12/29 07:53:49;;;;;;;15.40;8.10;;;;;;;-128.00;-1.00;-1.00;100513;1282;1004087;-31
2023/12/29 07:56:14;;;;;;;16.70;8.90;;;;;;;-128.00;-1.00;-1.00;100446;1282;1002958;-31
2023/12/29 07:58:40;;;;;;;14.00;7.60;;;;;;;-128.00;-1.00;-1.00;100365;1283;1039156;-31
2023/12/29 08:01:06;;;;;;;12.20;7.00;;;;;;;-128.00;-1.00;-1.00;100450;1282;1003887;-31
2023/12/29 08:03:31;;;;;;;12.60;7.40;;;;;;;-128.00;-1.00;-1.00;100511;1282;1003365;-31
2023/12/29 08:05:57;;;;;;;14.40;7.70;;;;;;;-128.00;-1.00;-1.00;100492;1281;1003646;-31
2023/12/29 08:08:22;;;;;;;15.10;7.70;;;;;;;-128.00;-1.00;-1.00;100445;1283;1003453;-33
2023/12/29 08:10:48;;;;;;;13.10;7.10;;;;;;;-128.00;-1.00;-1.00;100474;1283;1003095;-33
2023/12/29 08:13:13;;;;;;;14.10;7.80;;;;;;;-128.00;-1.00;-1.00;100558;1280;1003232;-33
2023/12/29 08:15:39;;;;;;;16.00;7.90;;;;;;;-128.00;-1.00;-1.00;100416;1283;1002724;-30
2023/12/29 08:18:05;;;;;;;;;;;;;;;-128.00;-1.00;-1.00;100566;1282;1003968;-33
2023/12/29 08:20:31;;;;;;;12.90;7.30;;;;;;;-128.00;-1.00;-1.00;100414;1285;1002850;-31
2023/12/29 08:23:02;;;;;;;14.70;8.20;;;;;;;-128.00;-1.00;-1.00;100586;1280;1002729;-32
2023/12/29 08:25:29;;;;;;;13.50;7.70;;;;;;;-128.00;-1.00;-1.00;100450;1281;1055277;-32
2023/12/29 08:27:56;;;;;;;18.30;8.30;;;;;;;-128.00;-1.00;-1.00;100491;1282;1003466;-31
2023/12/29 08:30:21;;;;;;;12.70;7.30;;;;;;;-128.00;-1.00;-1.00;100115;1281;1005128;-31
2023/12/29 08:32:47;;;;;;;14.90;8.00;;;;;;;-128.00;-1.00;-1.00;100281;1282;1002565;-33
2023/12/29 08:35:13;;;;;;;13.30;7.40;;;;;;;-128.00;-1.00;-1.00;100439;1282;1004468;-30
2023/12/29 08:37:38;;;;;;;13.30;7.90;;;;;;;-128.00;-1.00;-1.00;100560;1282;1003493;-30
2023/12/29 08:40:04;;;;;;;11.90;7.00;;;;;;;-128.00;-1.00;-1.00;100272;1283;1004681;-31
2023/12/29 08:42:30;;;;;;;14.40;7.80;;;;;;;-128.00;-1.00;-1.00;100231;1282;1038308;-30
2023/12/29 08:44:57;;;;;;;13.10;7.30;;;;;;;-128.00;-1.00;-1.00;100570;1282;1003793;-32
2023/12/29 08:47:23;;;;;;;14.10;7.40;;;;;;;-128.00;-1.00;-1.00;100566;1282;1002436;-32
2023/12/29 08:49:49;;;;;;;15.20;7.00;;;;;;;-128.00;-1.00;-1.00;100522;1282;1002913;-32
2023/12/29 08:52:15;;;;;;;14.80;7.90;;;;;;;-128.00;-1.00;-1.00;100497;1281;1002792;-32
2023/12/29 08:54:40;;;;;;;13.10;7.70;;;;;;;-128.00;-1.00;-1.00;100428;1285;1039134;-31
2023/12/29 08:57:07;;;;;;;15.70;8.10;;;;;;;-128.00;-1.00;-1.00;100547;1282;1005468;-34
2023/12/29 08:59:33;;;;;;;15.50;7.10;;;;;;;-128.00;-1.00;-1.00;100428;1283;1003928;-31
2023/12/29 09:01:59;;;;;;;16.40;6.90;;;;;;;-128.00;-1.00;-1.00;100504;1280;1003856;-32
2023/12/29 09:04:25;;;;;;;14.80;7.10;;;;;;;-128.00;-1.00;-1.00;100407;1285;1003806;-31
2023/12/29 09:06:52;;;;;;;13.90;7.50;;;;;;;-128.00;-1.00;-1.00;100291;1282;1003432;-30
2023/12/29 09:09:18;;;;;;;10.90;6.20;;;;;;;-128.00;-1.00;-1.00;100550;1282;1046129;-30
2023/12/29 09:11:45;;;;;;;12.20;6.10;;;;;;;-128.00;-1.00;-1.00;100435;1282;1003024;-33
2023/12/29 09:14:10;;;;;;;12.90;6.50;;;;;;;-128.00;-1.00;-1.00;100557;1283;1002788;-32
2023/12/29 09:16:36;;;;;;;10.00;6.00;;;;;;;-128.00;-1.00;-1.00;100432;1282;1004489;-32
2023/12/29 09:19:02;;;;;;;11.20;6.30;;;;;;;-128.00;-1.00;-1.00;100417;1283;1039201;-35
2023/12/29 09:21:27;;;;;;;10.30;5.30;;;;;;;-128.00;-1.00;-1.00;100445;1282;1002466;-32
2023/12/29 09:23:53;;;;;;;12.90;5.60;;;;;;;-128.00;-1.00;-1.00;100560;1282;1003229;-33
2023/12/29 09:26:18;;;;;;;9.50;5.90;;;;;;;-128.00;-1.00;-1.00;100439;1283;1059338;-32
2023/12/29 09:28:44;;;;;;;10.70;5.90;;;;;;;-128.00;-1.00;-1.00;100583;1282;1004743;-33
2023/12/29 09:31:11;;;;;;;11.00;6.00;;;;;;;-128.00;-1.00;-1.00;100457;1283;1004097;-33
2023/12/29 09:33:36;;;;;;;11.70;5.40;;;;;;;-128.00;-1.00;-1.00;100447;1281;1060549;-31
2023/12/29 09:36:03;;;;;;;10.10;5.10;;;;;;;-128.00;-1.00;-1.00;100533;1282;1003420;-34
2023/12/29 09:38:28;;;;;;;13.00;5.80;;;;;;;-128.00;-1.00;-1.00;100543;1283;1013110;-34
2023/12/29 09:40:59;;;;;;;10.20;5.00;;;;;;;-128.00;-1.00;-1.00;100543;1282;1003443;-34
2023/12/29 09:43:28;;;;;;;10.20;5.40;;;;;;;-128.00;-1.00;-1.00;100561;1283;1045578;-31
2023/12/29 09:45:54;;;;;;;8.50;5.10;;;;;;;-128.00;-1.00;-1.00;100313;1282;1059408;-31
2023/12/29 09:48:20;;;;;;;10.40;5.00;;;;;;;-128.00;-1.00;-1.00;100559;1281;1003056;-31
2023/12/29 09:50:46;;;;;;;9.10;5.10;;;;;;;-128.00;-1.00;-1.00;100530;1283;1005724;-32
2023/12/29 09:53:12;;;;;;;9.30;4.20;;;;;;;-128.00;-1.00;-1.00;100362;1282;1039018;-32
2023/12/29 09:55:39;;;;;;;12.60;5.20;;;;;;;-128.00;-1.00;-1.00;100620;1282;1004247;-31
2023/12/29 09:58:04;;;;;;;12.70;4.80;;;;;;;-128.00;-1.00;-1.00;100481;1282;1003074;-32
2023/12/29 10:00:30;;;;;;;15.80;5.70;;;;;;;-128.00;-1.00;-1.00;100485;1282;1004756;-32
2023/12/29 10:02:55;;;;;;;13.40;5.80;;;;;;;-128.00;-1.00;-1.00;100480;1282;1012027;-37
2023/12/29 10:05:21;;;;;;;11.50;5.50;;;;;;;-128.00;-1.00;-1.00;100491;1285;1003086;-35
2023/12/29 10:07:46;;;;;;;8.80;4.40;;;;;;;-128.00;-1.00;-1.00;100556;1282;1002973;-34
2023/12/29 10:10:15;;;;;;;9.70;4.40;;;;;;;-128.00;-1.00;-1.00;100506;1282;1055338;-32
2023/12/29 10:12:42;;;;;;;10.80;4.10;;;;;;;-128.00;-1.00;-1.00;100563;1282;1058419;-33
2023/12/29 10:15:16;;;;;;;5.90;4.30;;;;;;;-128.00;-1.00;-1.00;100456;1282;1003583;-32
2023/12/29 10:18:03;;;;;;;7.80;2.90;;;;;;;-128.00;-1.00;-1.00;100576;1283;1046410;-33
2023/12/29 10:20:43;;;;;;;4.60;2.50;;;;;;;-128.00;-1.00;-1.00;100449;1285;1060474;-33
2023/12/29 10:23:23;;;;;;;5.40;2.30;;;;;;;-128.00;-1.00;-1.00;100414;1282;1056047;-31
2023/12/29 10:25:49;;;;;;;4.10;2.40;;;;;;;-128.00;-1.00;-1.00;100482;1282;1058117;-33
2023/12/29 10:28:14;;;;;;;5.50;2.40;;;;;;;-128.00;-1.00;-1.00;100429;1283;1003855;-34
2023/12/29 10:30:40;;;;;;;3.40;1.90;;;;;;;-128.00;-1.00;-1.00;100508;1285;1003846;-33
2023/12/29 10:33:05;;;;;;;4.20;2.00;;;;;;;-128.00;-1.00;-1.00;100445;1282;1004901;-35
2023/12/29 10:35:31;;;;;;;4.60;2.10;;;;;;;-128.00;-1.00;-1.00;100456;1282;1003167;-32
2023/12/29 10:38:09;;;;;;;5.50;2.30;;;;;;;-128.00;-1.00;-1.00;100316;1283;1004484;-32
2023/12/29 10:40:35;;;;;;;4.50;1.80;;;;;;;-128.00;-1.00;-1.00;100469;1285;1039240;-31
2023/12/29 10:43:06;;;;;;;5.10;2.10;;;;;;;-128.00;-1.00;-1.00;100381;1282;1005345;-32
2023/12/29 10:45:32;;;;;;;4.80;2.00;;;;;;;-128.00;-1.00;-1.00;100245;1283;1059330;-31
2023/12/29 10:48:00;;;;;;;3.40;1.90;;;;;;;-128.00;-1.00;-1.00;100465;1282;1003528;-32
2023/12/29 10:50:27;;;;;;;3.30;1.70;;;;;;;-128.00;-1.00;-1.00;100394;1281;1003547;-31
2023/12/29 10:53:10;;;;;;;3.40;1.50;;;;;;;-128.00;-1.00;-1.00;100373;1283;1003210;-33
2023/12/29 10:55:36;;;;;;;3.30;1.70;;;;;;;-128.00;-1.00;-1.00;100450;1285;1038878;-32
2023/12/29 10:58:01;;;;;;;5.20;1.20;;;;;;;-128.00;-1.00;-1.00;100311;1282;1003308;-31
2023/12/29 11:00:31;;;;;;;2.40;1.10;;;;;;;-128.00;-1.00;-1.00;100452;1282;1056563;-32
2023/12/29 11:02:56;;;;;;;2.10;1.20;;;;;;;-128.00;-1.00;-1.00;100597;1282;1059523;-33
2023/12/29 11:05:25;;;;;;;2.20;1.10;;;;;;;-128.00;-1.00;-1.00;100602;1282;1003343;-34
2023/12/29 11:07:53;;;;;;;2.60;0.80;;;;;;;-128.00;-1.00;-1.00;100639;1282;1046798;-33
2023/12/29 11:10:20;;;;;;;1.90;0.80;;;;;;;-128.00;-1.00;-1.00;100283;1282;1060124;-32
2023/12/29 11:12:45;;;;;;;2.20;1.00;;;;;;;-128.00;-1.00;-1.00;100389;1282;1002984;-34
2023/12/29 11:15:11;;;;;;;2.20;0.90;;;;;;;-128.00;-1.00;-1.00;100435;1283;1003034;-33
2023/12/29 11:17:37;;;;;;;;;;;;;;;-128.00;-1.00;-1.00;100438;1283;1039553;-33
2023/12/29 11:20:04;;;;;;;3.80;0.70;;;;;;;-128.00;-1.00;-1.00;100489;1282;1004042;-33
2023/12/29 11:22:30;;;;;;;1.80;0.90;;;;;;;-128.00;-1.00;-1.00;100474;1285;1058634;-34
2023/12/29 11:25:00;;;;;;;2.00;0.90;;;;;;;-128.00;-1.00;-1.00;100247;1283;1003177;-33
2023/12/29 11:27:27;;;;;;;2.20;1.00;;;;;;;-128.00;-1.00;-1.00;100424;1282;1012019;-33
2023/12/29 11:29:53;;;;;;;2.30;0.90;;;;;;;-128.00;-1.00;-1.00;100440;1284;1003843;-33
2023/12/29 11:32:22;;;;;;;2.50;0.90;;;;;;;-128.00;-1.00;-1.00;100573;1282;1004779;-31
2023/12/29 11:34:59;;;;;;;5.00;1.00;;;;;;;-128.00;-1.00;-1.00;100535;1283;1002993;-32
2023/12/29 11:37:35;;;;;;;1.60;0.90;;;;;;;-128.00;-1.00;-1.00;100536;1282;1055195;-31
2023/12/29 11:40:15;;;;;;;1.60;0.90;;;;;;;-128.00;-1.00;-1.00;100226;1285;1059553;-31
2023/12/29 11:42:40;;;;;;;1.50;0.80;;;;;;;-128.00;-1.00;-1.00;100406;1285;1012848;-33
2023/12/29 11:45:32;;;;;;;3.90;1.00;;;;;;;-128.00;-1.00;-1.00;100473;1282;1003086;-32
2023/12/29 11:48:00;;;;;;;1.60;0.80;;;;;;;-128.00;-1.00;-1.00;100438;1282;1060639;-31
2023/12/29 11:50:33;;;;;;;2.20;1.00;;;;;;;-128.00;-1.00;-1.00;100410;1282;1003796;-33